Time;durP1;ratioP1;P1;durP2;ratioP2;P2;SDS_P1;SDS_P2;PMS_P1;PMS_P2;Temp;Humidity;BMP_temperature;BMP_pressure;BME280_temperature;BME280_humidity;BME280_pressure;Samples;Min_cycle;Max_cycle;Signal;HPM_P1;HPM_P2
2021/06/15 00:01:06;;;;;;;10.70;3.47;;;17.20;99.90;;;;;;5066891;28;20535;-62
2021/06/15 00:03:35;;;;;;;12.57;3.83;;;17.20;99.90;;;;;;5066643;28;20231;-61
2021/06/15 00:06:05;;;;;;;13.27;3.70;;;17.10;99.90;;;;;;5066789;28;20262;-62
2021/06/15 00:08:33;;;;;;;9.83;3.30;;;17.10;99.90;;;;;;5066400;28;20289;-63
2021/06/15 00:11:01;;;;;;;11.70;3.83;;;17.10;99.90;;;;;;5067059;28;20240;-61
2021/06/15 00:13:30;;;;;;;10.80;3.83;;;17.00;99.90;;;;;;5066353;28;20332;-62
2021/06/15 00:15:58;;;;;;;11.43;3.40;;;17.10;99.90;;;;;;5069533;28;20227;-62
2021/06/15 00:18:26;;;;;;;14.73;3.27;;;17.00;99.90;;;;;;5070323;28;20621;-62
2021/06/15 00:20:54;;;;;;;12.63;3.57;;;17.00;99.90;;;;;;5070869;28;20612;-62
2021/06/15 00:23:24;;;;;;;11.13;3.33;;;17.10;99.90;;;;;;5070326;28;20354;-60
2021/06/15 00:25:52;;;;;;;12.50;3.37;;;17.00;99.90;;;;;;5052166;28;20702;-61
2021/06/15 00:28:21;;;;;;;11.97;3.50;;;16.90;99.90;;;;;;5069709;28;20238;-61
2021/06/15 00:30:49;;;;;;;9.97;3.27;;;16.90;99.90;;;;;;5070178;28;20234;-61
2021/06/15 00:33:17;;;;;;;11.83;3.80;;;16.90;99.90;;;;;;5052144;28;20281;-61
2021/06/15 00:35:45;;;;;;;11.17;3.17;;;17.00;99.90;;;;;;5070395;28;20235;-61
2021/06/15 00:38:13;;;;;;;10.90;3.07;;;17.00;99.90;;;;;;5069807;28;20243;-62
2021/06/15 00:40:43;;;;;;;14.30;3.30;;;17.00;99.90;;;;;;5069758;28;20232;-63
2021/06/15 00:43:12;;;;;;;11.73;2.83;;;17.00;99.90;;;;;;5052030;28;20235;-62
2021/06/15 00:45:40;;;;;;;7.97;2.83;;;16.90;99.90;;;;;;5070467;28;20633;-62
2021/06/15 00:48:23;;;;;;;11.63;3.30;;;16.90;99.90;;;;;;5068832;28;20267;-62
2021/06/15 00:50:55;;;;;;;9.97;2.93;;;16.90;99.90;;;;;;5069821;28;20710;-62
2021/06/15 00:53:23;;;;;;;10.87;3.10;;;16.80;99.90;;;;;;5069648;28;20231;-61
2021/06/15 00:55:54;;;;;;;6.67;2.53;;;16.80;99.90;;;;;;5052289;28;20317;-61
2021/06/15 00:58:23;;;;;;;9.47;2.80;;;16.80;99.90;;;;;;5051720;28;20243;-62
2021/06/15 01:00:53;;;;;;;15.83;3.33;;;16.80;99.90;;;;;;5052227;28;20270;-61
2021/06/15 01:03:23;;;;;;;10.30;2.67;;;16.80;99.90;;;;;;5051847;28;20317;-62
2021/06/15 01:05:52;;;;;;;9.40;3.00;;;16.70;99.90;;;;;;5069759;28;20242;-61
2021/06/15 01:08:34;;;;;;;12.13;3.20;;;16.70;99.90;;;;;;5069473;28;20239;-62
2021/06/15 01:11:10;;;;;;;9.57;2.80;;;16.80;99.90;;;;;;5051844;28;20262;-62
2021/06/15 01:13:52;;;;;;;11.87;2.90;;;16.80;99.90;;;;;;5069912;28;20263;-61
2021/06/15 01:16:25;;;;;;;9.00;2.70;;;16.80;99.90;;;;;;5051633;28;20235;-62
2021/06/15 01:19:00;;;;;;;9.67;2.90;;;16.80;99.90;;;;;;5069313;28;20702;-61
2021/06/15 01:21:29;;;;;;;11.53;2.90;;;16.80;99.90;;;;;;5069382;28;20868;-61
2021/06/15 01:24:05;;;;;;;8.53;2.70;;;16.70;99.90;;;;;;5069180;28;20242;-61
2021/06/15 01:27:14;;;;;;;9.43;2.30;;;16.70;99.90;;;;;;5067996;28;20241;-62
2021/06/15 01:29:46;;;;;;;10.13;2.50;;;16.70;99.90;;;;;;5032038;28;20268;-63
2021/06/15 01:32:24;;;;;;;11.70;2.70;;;16.70;99.90;;;;;;5048834;28;20730;-61
2021/06/15 01:34:55;;;;;;;7.43;2.47;;;16.70;99.90;;;;;;5050762;28;20259;-62
2021/06/15 01:37:28;;;;;;;6.07;2.57;;;16.70;99.90;;;;;;5069255;28;20244;-62
2021/06/15 01:39:59;;;;;;;6.97;2.67;;;16.70;99.90;;;;;;5051097;28;20242;-63
2021/06/15 01:42:44;;;;;;;11.33;3.07;;;16.60;99.90;;;;;;5068162;28;20316;-62
2021/06/15 01:45:19;;;;;;;8.70;2.80;;;16.50;99.90;;;;;;5051219;28;20730;-62
2021/06/15 01:48:05;;;;;;;10.37;3.07;;;16.50;99.90;;;;;;5068545;28;20721;-62
2021/06/15 01:50:37;;;;;;;8.17;3.13;;;16.50;99.90;;;;;;5066979;28;20235;-62
2021/06/15 01:53:07;;;;;;;10.20;3.00;;;16.50;99.90;;;;;;5048955;28;20262;-62
2021/06/15 01:55:39;;;;;;;9.43;3.03;;;16.40;99.90;;;;;;5067195;28;20608;-62
2021/06/15 01:58:09;;;;;;;9.23;2.90;;;16.40;99.90;;;;;;5067977;28;20239;-62
2021/06/15 02:00:38;;;;;;;12.10;3.10;;;16.30;99.90;;;;;;5049912;28;20732;-62
2021/06/15 02:03:08;;;;;;;13.13;2.80;;;16.20;99.90;;;;;;5040043;28;20526;-60
2021/06/15 02:05:42;;;;;;;10.63;2.90;;;16.20;99.90;;;;;;5058058;28;20599;-61
2021/06/15 02:08:16;;;;;;;9.70;3.03;;;16.20;99.90;;;;;;5065902;28;20330;-61
2021/06/15 02:10:46;;;;;;;9.87;2.77;;;16.20;99.90;;;;;;5049224;28;20242;-62
2021/06/15 02:13:40;;;;;;;11.13;2.53;;;16.20;99.90;;;;;;5049207;28;20314;-61
2021/06/15 02:16:32;;;;;;;11.30;2.70;;;16.20;99.90;;;;;;5048768;28;20280;-62
2021/06/15 02:19:34;;;;;;;8.68;2.95;;;16.10;99.90;;;;;;2139181;28;10002776;-61
2021/06/15 02:22:08;;;;;;;10.80;2.70;;;16.10;99.90;;;;;;4352423;28;10001195;-61
2021/06/15 02:24:40;;;;;;;9.03;2.70;;;16.00;99.90;;;;;;5048659;28;20493;-61
2021/06/15 02:27:11;;;;;;;10.63;2.80;;;16.00;99.90;;;;;;5048939;28;20308;-61
2021/06/15 02:29:41;;;;;;;11.27;2.90;;;16.10;99.90;;;;;;5066609;28;20288;-61
2021/06/15 02:32:14;;;;;;;9.57;2.77;;;16.00;99.90;;;;;;5049260;28;20782;-62
2021/06/15 02:34:47;;;;;;;8.53;2.67;;;16.00;99.90;;;;;;5066053;28;20242;-62
2021/06/15 02:37:20;;;;;;;9.87;2.70;;;16.00;99.90;;;;;;5067199;28;20227;-62
2021/06/15 02:39:50;;;;;;;6.93;2.57;;;16.10;99.90;;;;;;5067885;28;20314;-61
2021/06/15 02:42:20;;;;;;;7.70;2.63;;;16.10;99.90;;;;;;5067854;28;20314;-62
2021/06/15 02:44:50;;;;;;;8.53;2.93;;;16.00;99.90;;;;;;5066565;28;20637;-62
2021/06/15 02:47:22;;;;;;;11.40;2.90;;;16.00;99.90;;;;;;5050054;28;20302;-62
2021/06/15 02:49:54;;;;;;;11.07;2.80;;;15.90;99.90;;;;;;5066505;28;20239;-62
2021/06/15 02:52:33;;;;;;;8.97;2.90;;;15.90;99.90;;;;;;5067589;28;20309;-61
2021/06/15 02:55:05;;;;;;;9.40;3.20;;;15.90;99.90;;;;;;5030258;28;20607;-62
2021/06/15 02:57:34;;;;;;;7.80;2.83;;;15.90;99.90;;;;;;5046444;28;20261;-61
2021/06/15 03:00:07;;;;;;;9.93;2.77;;;15.90;99.90;;;;;;5049377;28;20675;-62
2021/06/15 03:02:37;;;;;;;13.57;3.47;;;15.90;99.90;;;;;;5067274;28;20231;-62
2021/06/15 03:05:09;;;;;;;6.80;2.67;;;15.90;99.90;;;;;;5068045;28;20699;-62
2021/06/15 03:07:38;;;;;;;9.03;3.20;;;15.80;99.90;;;;;;5049153;28;20235;-68
2021/06/15 03:10:09;;;;;;;10.27;3.40;;;15.80;99.90;;;;;;5068013;28;20318;-68
2021/06/15 03:12:47;;;;;;;10.00;3.27;;;15.90;99.90;;;;;;5065914;28;20314;-66
2021/06/15 03:15:19;;;;;;;13.73;3.23;;;15.90;99.90;;;;;;5066178;28;20322;-67
2021/06/15 03:18:02;;;;;;;7.53;2.30;;;15.90;99.90;;;;;;5065640;28;20293;-68
2021/06/15 03:20:33;;;;;;;8.40;2.90;;;15.80;99.90;;;;;;5066534;28;20241;-68
2021/06/15 03:23:06;;;;;;;8.90;3.00;;;15.80;99.90;;;;;;5049066;28;20235;-68
2021/06/15 03:25:37;;;;;;;9.10;2.83;;;15.80;99.90;;;;;;5049079;28;20689;-68
2021/06/15 03:28:12;;;;;;;12.13;3.50;;;15.90;99.90;;;;;;5065535;28;20234;-68
2021/06/15 03:30:43;;;;;;;10.10;2.90;;;15.90;99.90;;;;;;5066225;28;20254;-68
2021/06/15 03:33:17;;;;;;;10.40;2.90;;;15.90;99.90;;;;;;5049276;28;20675;-68
2021/06/15 03:35:51;;;;;;;8.87;3.00;;;15.80;99.90;;;;;;5066568;28;20763;-68
2021/06/15 03:38:20;;;;;;;9.90;3.87;;;15.80;99.90;;;;;;5066559;28;20235;-68
2021/06/15 03:40:52;;;;;;;8.23;2.80;;;15.80;99.90;;;;;;5048678;28;20729;-65
2021/06/15 03:43:21;;;;;;;8.63;2.70;;;15.80;99.90;;;;;;5066631;28;20316;-68
2021/06/15 03:45:55;;;;;;;7.60;2.47;;;15.80;99.90;;;;;;5066473;28;20325;-68
2021/06/15 03:48:27;;;;;;;7.47;2.50;;;15.80;99.90;;;;;;5065764;28;20756;-68
2021/06/15 03:50:58;;;;;;;9.87;2.83;;;15.80;99.90;;;;;;5062970;28;20634;-67
2021/06/15 03:53:29;;;;;;;7.07;2.43;;;15.80;99.90;;;;;;5071698;28;20230;-67
2021/06/15 03:55:59;;;;;;;8.90;2.97;;;15.80;99.90;;;;;;5070268;28;20391;-67
2021/06/15 03:58:28;;;;;;;10.80;2.77;;;15.80;99.90;;;;;;5070858;28;20326;-67
2021/06/15 04:00:58;;;;;;;6.87;2.50;;;15.80;99.90;;;;;;5070735;28;20288;-68
2021/06/15 04:03:28;;;;;;;7.00;2.70;;;15.80;99.90;;;;;;5070969;28;20235;-68
2021/06/15 04:05:57;;;;;;;11.93;3.00;;;15.80;99.90;;;;;;5071751;28;20246;-68
2021/06/15 04:08:27;;;;;;;7.73;2.20;;;15.70;99.90;;;;;;5070684;28;20237;-65
2021/06/15 04:10:56;;;;;;;8.03;2.57;;;15.80;99.90;;;;;;5071542;28;20295;-67
2021/06/15 04:13:26;;;;;;;9.40;2.50;;;15.70;99.90;;;;;;5071181;28;20253;-68
2021/06/15 04:15:56;;;;;;;8.73;2.70;;;15.70;99.90;;;;;;5073235;28;20246;-67
2021/06/15 04:18:26;;;;;;;9.30;2.93;;;15.70;99.90;;;;;;5073087;28;20284;-68
2021/06/15 04:20:59;;;;;;;11.50;2.70;;;15.70;99.90;;;;;;5073601;28;20317;-67
2021/06/15 04:23:34;;;;;;;9.60;2.67;;;15.80;99.90;;;;;;5072922;28;20725;-67
2021/06/15 04:26:03;;;;;;;9.37;2.63;;;15.70;99.90;;;;;;5072222;28;20300;-68
2021/06/15 04:28:31;;;;;;;8.80;2.70;;;15.80;99.90;;;;;;5070508;28;20241;-68
2021/06/15 04:31:01;;;;;;;7.63;2.33;;;15.80;99.90;;;;;;5070670;28;20243;-68
2021/06/15 04:33:32;;;;;;;11.03;2.60;;;15.90;99.90;;;;;;5072971;28;20231;-69
2021/06/15 04:36:06;;;;;;;10.20;2.43;;;15.90;99.90;;;;;;5072810;28;20239;-67
2021/06/15 04:38:39;;;;;;;7.60;2.97;;;16.00;99.90;;;;;;5072779;28;20709;-67
2021/06/15 04:41:13;;;;;;;8.37;2.43;;;16.00;99.90;;;;;;5070366;28;20705;-67
2021/06/15 04:43:46;;;;;;;8.60;2.67;;;16.00;99.90;;;;;;5069679;28;20263;-68
2021/06/15 04:46:19;;;;;;;8.07;2.10;;;16.00;99.90;;;;;;5069024;28;20239;-68
2021/06/15 04:48:54;;;;;;;9.80;2.37;;;15.90;99.90;;;;;;5059169;28;20245;-68
2021/06/15 04:51:23;;;;;;;10.23;2.60;;;15.90;99.90;;;;;;5069549;28;20747;-67
2021/06/15 04:53:58;;;;;;;9.07;2.80;;;16.00;99.90;;;;;;5069709;28;20258;-68
2021/06/15 04:56:29;;;;;;;8.50;2.50;;;16.00;99.90;;;;;;5068246;28;20694;-65
2021/06/15 04:59:00;;;;;;;9.33;2.33;;;16.00;99.90;;;;;;5066091;28;20249;-67
2021/06/15 05:01:28;;;;;;;7.13;2.37;;;16.00;99.90;;;;;;5064593;28;20316;-68
2021/06/15 05:03:57;;;;;;;7.30;2.57;;;16.10;99.90;;;;;;5064404;28;20241;-67
2021/06/15 05:06:27;;;;;;;9.90;2.40;;;16.10;99.90;;;;;;5046586;28;20315;-67
2021/06/15 05:08:58;;;;;;;8.37;2.40;;;16.20;99.90;;;;;;5064624;28;20873;-68
2021/06/15 05:11:29;;;;;;;10.00;2.77;;;16.20;99.90;;;;;;5064444;28;20302;-67
2021/06/15 05:14:00;;;;;;;8.13;2.37;;;16.30;99.90;;;;;;5065903;28;20235;-67
2021/06/15 05:16:33;;;;;;;10.13;2.80;;;16.30;99.90;;;;;;5066755;28;20239;-68
2021/06/15 05:19:02;;;;;;;7.93;2.10;;;16.40;99.90;;;;;;5066415;28;20634;-67
2021/06/15 05:21:38;;;;;;;10.57;2.03;;;16.40;99.90;;;;;;5066177;28;20711;-68
2021/06/15 05:24:11;;;;;;;11.23;2.73;;;16.40;99.90;;;;;;5066184;28;20242;-68
2021/06/15 05:26:39;;;;;;;12.30;2.63;;;16.50;99.90;;;;;;5047952;28;20254;-67
2021/06/15 05:29:07;;;;;;;10.37;2.70;;;16.50;99.90;;;;;;5065165;28;20235;-66
2021/06/15 05:31:35;;;;;;;9.90;2.50;;;16.50;99.90;;;;;;5065529;28;20239;-67
2021/06/15 05:34:03;;;;;;;8.43;2.30;;;16.60;99.90;;;;;;5065852;28;20242;-68
2021/06/15 05:36:33;;;;;;;8.53;2.60;;;16.60;99.90;;;;;;5065603;28;20235;-67
2021/06/15 05:39:01;;;;;;;9.47;2.40;;;16.70;99.90;;;;;;5065459;28;20448;-68
2021/06/15 05:41:29;;;;;;;9.17;2.50;;;16.70;99.90;;;;;;5065773;28;20235;-67
2021/06/15 05:43:57;;;;;;;12.07;3.13;;;16.80;99.90;;;;;;5058040;28;20316;-67
2021/06/15 05:46:25;;;;;;;9.67;2.37;;;16.80;99.90;;;;;;5065100;28;20595;-66
2021/06/15 05:48:54;;;;;;;7.47;2.50;;;16.80;99.90;;;;;;5065353;28;20243;-68
2021/06/15 05:51:22;;;;;;;7.27;2.23;;;16.90;99.90;;;;;;5065819;28;20245;-67
2021/06/15 05:53:52;;;;;;;11.30;2.93;;;17.00;99.90;;;;;;5065633;28;20738;-67
2021/06/15 05:56:20;;;;;;;8.37;2.53;;;17.20;99.90;;;;;;5065731;28;20448;-66
2021/06/15 05:58:48;;;;;;;9.47;2.60;;;17.30;99.90;;;;;;5065393;28;20250;-67
2021/06/15 06:01:16;;;;;;;11.50;2.50;;;17.60;99.90;;;;;;5065436;28;20231;-67
2021/06/15 06:03:50;;;;;;;12.20;3.00;;;18.20;99.90;;;;;;5064910;28;20231;-68
2021/06/15 06:09:06;;;;;;;10.73;2.30;;;18.60;99.90;;;;;;5064938;28;20267;-67
2021/06/15 06:11:34;;;;;;;10.90;2.77;;;18.40;99.90;;;;;;5064853;28;20263;-68
2021/06/15 06:14:02;;;;;;;6.13;2.03;;;18.20;99.90;;;;;;5064664;28;20628;-67
2021/06/15 06:16:33;;;;;;;13.27;2.50;;;18.20;99.90;;;;;;5065307;28;20274;-67
2021/06/15 06:19:13;;;;;;;7.67;2.10;;;18.00;99.90;;;;;;5064958;28;20247;-67
2021/06/15 06:21:43;;;;;;;7.87;2.30;;;18.20;99.90;;;;;;5065233;28;20253;-67
2021/06/15 06:24:14;;;;;;;8.37;2.10;;;18.60;99.90;;;;;;5065000;28;20335;-67
2021/06/15 06:26:42;;;;;;;8.10;2.00;;;18.70;99.90;;;;;;5064852;28;20242;-67
2021/06/15 06:29:10;;;;;;;10.17;2.50;;;18.60;99.90;;;;;;5064381;28;20609;-67
2021/06/15 06:31:38;;;;;;;8.40;2.03;;;18.30;99.90;;;;;;5064877;28;20700;-67
2021/06/15 06:34:07;;;;;;;6.80;2.17;;;18.30;99.90;;;;;;5065004;28;20242;-67
2021/06/15 06:36:35;;;;;;;7.17;1.80;;;18.10;99.90;;;;;;5051660;28;20264;-66
2021/06/15 06:39:04;;;;;;;6.70;1.70;;;18.00;99.90;;;;;;5044391;28;20251;-66
2021/06/15 06:41:34;;;;;;;7.23;1.90;;;17.80;99.90;;;;;;5044548;28;20283;-66
2021/06/15 06:44:02;;;;;;;7.23;2.13;;;17.70;99.90;;;;;;5044882;28;20611;-66
2021/06/15 06:46:31;;;;;;;8.30;2.10;;;17.70;99.90;;;;;;5044519;28;20646;-66
2021/06/15 06:48:59;;;;;;;6.63;2.00;;;17.90;99.90;;;;;;5044395;28;20240;-66
2021/06/15 06:51:28;;;;;;;6.67;2.00;;;18.20;99.90;;;;;;5044171;28;20236;-66
2021/06/15 06:53:56;;;;;;;8.83;2.37;;;18.90;99.90;;;;;;5044638;28;20236;-65
2021/06/15 06:56:24;;;;;;;9.43;1.87;;;19.10;99.90;;;;;;5044775;28;20264;-66
2021/06/15 06:58:53;;;;;;;9.07;1.93;;;19.30;99.90;;;;;;5044043;28;20337;-66
2021/06/15 07:01:22;;;;;;;10.93;2.40;;;19.20;99.90;;;;;;5043502;28;20291;-66
2021/06/15 07:03:50;;;;;;;8.10;1.77;;;19.30;99.90;;;;;;5046890;28;20250;-65
2021/06/15 07:06:18;;;;;;;5.57;1.90;;;19.50;99.90;;;;;;5055041;28;20234;-66
2021/06/15 07:08:48;;;;;;;5.77;1.80;;;19.60;99.90;;;;;;5053728;28;20265;-66
2021/06/15 07:11:16;;;;;;;9.70;1.90;;;19.80;99.90;;;;;;5044240;28;20237;-66
2021/06/15 07:13:48;;;;;;;6.00;1.83;;;19.90;99.90;;;;;;5044000;28;20272;-66
2021/06/15 07:16:18;;;;;;;7.83;1.50;;;20.00;99.90;;;;;;5043800;28;20245;-65
2021/06/15 07:18:46;;;;;;;5.67;1.50;;;20.40;99.90;;;;;;5045158;28;20246;-65
2021/06/15 07:21:14;;;;;;;5.83;1.80;;;20.90;99.90;;;;;;5054178;28;20246;-65
2021/06/15 07:23:43;;;;;;;4.40;1.30;;;21.40;99.90;;;;;;5054725;28;20235;-65
2021/06/15 07:26:11;;;;;;;4.80;1.50;;;22.00;99.90;;;;;;5060032;28;20636;-66
2021/06/15 07:28:39;;;;;;;5.23;1.73;;;22.00;99.90;;;;;;5063402;28;20713;-66
2021/06/15 07:31:07;;;;;;;7.33;1.80;;;21.50;99.90;;;;;;5063598;28;20234;-65
2021/06/15 07:33:36;;;;;;;7.43;1.83;;;21.10;99.90;;;;;;5065888;28;20321;-65
2021/06/15 07:36:06;;;;;;;5.03;1.63;;;20.90;99.90;;;;;;5057271;28;20241;-66
2021/06/15 07:38:34;;;;;;;5.90;2.00;;;20.90;99.90;;;;;;5063131;28;20281;-65
2021/06/15 07:41:02;;;;;;;6.73;1.30;;;20.90;99.90;;;;;;5064024;28;20655;-66
2021/06/15 07:43:31;;;;;;;7.33;1.40;;;20.90;99.90;;;;;;5063368;28;20241;-66
2021/06/15 07:46:00;;;;;;;5.60;1.43;;;20.80;99.90;;;;;;5063789;28;20274;-66
2021/06/15 07:48:28;;;;;;;4.73;1.37;;;20.70;99.90;;;;;;5063116;28;20239;-66
2021/06/15 07:50:58;;;;;;;6.87;1.80;;;20.60;99.90;;;;;;5063994;28;20613;-66
2021/06/15 07:53:26;;;;;;;8.20;1.83;;;20.40;99.90;;;;;;5063707;28;20238;-66
2021/06/15 07:55:54;;;;;;;4.20;1.40;;;20.20;99.90;;;;;;5064191;28;20246;-65
2021/06/15 07:58:22;;;;;;;3.93;1.50;;;20.40;99.90;;;;;;5062856;28;20290;-65
2021/06/15 08:00:50;;;;;;;7.47;1.93;;;21.00;99.90;;;;;;5025626;28;20728;-65
2021/06/15 08:03:18;;;;;;;5.33;1.90;;;21.20;99.90;;;;;;5052300;28;20322;-65
2021/06/15 08:05:46;;;;;;;6.53;2.07;;;21.30;99.90;;;;;;5062620;28;20239;-65
2021/06/15 08:08:16;;;;;;;5.80;1.80;;;21.50;99.90;;;;;;5063229;28;20781;-65
2021/06/15 08:10:44;;;;;;;5.37;1.90;;;21.60;99.90;;;;;;5063461;28;20241;-65
2021/06/15 08:13:12;;;;;;;5.90;1.77;;;22.10;99.90;;;;;;5064122;28;20237;-66
2021/06/15 08:15:41;;;;;;;8.63;2.20;;;22.80;99.90;;;;;;5064222;28;20265;-65
2021/06/15 08:18:09;;;;;;;7.13;2.30;;;22.70;99.90;;;;;;5064030;28;20246;-65
2021/06/15 08:20:37;;;;;;;6.73;2.40;;;22.70;99.90;;;;;;5063956;28;20872;-65
2021/06/15 08:23:05;;;;;;;6.43;2.23;;;22.70;99.90;;;;;;5063660;28;20242;-66
2021/06/15 08:25:35;;;;;;;7.43;2.37;;;22.50;99.90;;;;;;5063759;28;20256;-66
2021/06/15 08:28:05;;;;;;;5.67;2.23;;;22.20;99.90;;;;;;5063506;28;20332;-65
2021/06/15 08:30:33;;;;;;;8.23;2.43;;;21.60;99.90;;;;;;5063345;28;20757;-65
2021/06/15 08:33:02;;;;;;;9.43;2.40;;;21.30;99.90;;;;;;5063376;28;20250;-65
2021/06/15 08:35:30;;;;;;;6.33;2.30;;;21.20;99.90;;;;;;5063361;28;20242;-65
2021/06/15 08:37:58;;;;;;;5.33;2.57;;;21.20;99.90;;;;;;5066873;28;20242;-65
2021/06/15 08:40:27;;;;;;;8.43;2.53;;;20.90;99.90;;;;;;5054611;28;20235;-65
2021/06/15 08:42:57;;;;;;;5.70;2.43;;;21.30;99.90;;;;;;5057506;28;20249;-65
2021/06/15 08:45:26;;;;;;;5.57;2.23;;;22.30;99.90;;;;;;5059118;28;20261;-65
2021/06/15 08:47:55;;;;;;;7.27;2.20;;;23.20;99.90;;;;;;5066893;28;20253;-65
2021/06/15 08:50:25;;;;;;;8.13;2.30;;;23.50;99.90;;;;;;5066392;28;20766;-66
2021/06/15 08:52:54;;;;;;;6.87;2.20;;;23.00;99.90;;;;;;5065944;28;20238;-66
2021/06/15 08:55:28;;;;;;;6.93;2.03;;;22.70;99.90;;;;;;5067740;28;20311;-65
2021/06/15 08:58:23;;;;;;;8.37;2.10;;;22.10;99.90;;;;;;5067399;28;20250;-66
2021/06/15 09:00:51;;;;;;;6.60;1.80;;;21.50;99.90;;;;;;5056936;28;20651;-66
2021/06/15 09:03:19;;;;;;;6.87;1.90;;;21.50;99.90;;;;;;5067154;28;20600;-66
2021/06/15 09:05:47;;;;;;;6.37;2.20;;;22.50;99.90;;;;;;5066721;28;20274;-65
2021/06/15 09:08:16;;;;;;;5.77;2.20;;;23.40;99.90;;;;;;5066866;28;20743;-65
2021/06/15 09:10:46;;;;;;;6.40;1.70;;;23.90;99.90;;;;;;5066540;28;20330;-65
2021/06/15 09:13:37;;;;;;;5.50;1.90;;;23.40;99.90;;;;;;5066710;28;20238;-65
2021/06/15 09:16:24;;;;;;;5.23;2.10;;;22.70;99.90;;;;;;5067031;28;20249;-65
2021/06/15 09:18:54;;;;;;;6.93;2.00;;;22.10;99.90;;;;;;5066860;28;20230;-66
2021/06/15 09:21:43;;;;;;;5.57;1.90;;;22.00;99.90;;;;;;5065722;28;20737;-66
2021/06/15 09:24:14;;;;;;;4.70;1.80;;;23.00;99.90;;;;;;5066531;28;20239;-66
2021/06/15 09:26:56;;;;;;;6.70;1.93;;;24.20;99.90;;;;;;5068709;28;20236;-65
2021/06/15 09:29:44;;;;;;;6.03;2.43;;;24.90;99.90;;;;;;5066127;28;20236;-66
2021/06/15 09:32:17;;;;;;;4.87;1.80;;;23.90;99.90;;;;;;5066049;28;20244;-65
2021/06/15 09:34:54;;;;;;;7.53;1.90;;;23.40;99.90;;;;;;5067070;28;20325;-65
2021/06/15 09:37:35;;;;;;;7.20;1.83;;;22.80;99.90;;;;;;5066030;28;20239;-66
2021/06/15 09:40:11;;;;;;;8.37;2.13;;;22.30;99.90;;;;;;5046416;28;20274;-66
2021/06/15 09:42:53;;;;;;;6.23;2.00;;;22.70;99.90;;;;;;5046911;28;20235;-66
2021/06/15 09:45:25;;;;;;;4.60;1.53;;;23.20;99.90;;;;;;5065446;28;20234;-65
2021/06/15 09:47:55;;;;;;;6.83;1.63;;;23.70;99.90;;;;;;5054296;28;20258;-65
2021/06/15 09:50:24;;;;;;;5.37;1.50;;;23.50;99.90;;;;;;5046085;28;20245;-65
2021/06/15 09:52:52;;;;;;;5.53;1.60;;;22.90;99.90;;;;;;5053635;28;20238;-66
2021/06/15 09:55:23;;;;;;;5.33;1.30;;;22.40;99.90;;;;;;5054406;28;20245;-65
2021/06/15 09:57:59;;;;;;;3.97;1.17;;;22.20;99.90;;;;;;5054013;28;20239;-66
2021/06/15 10:00:28;;;;;;;4.73;1.40;;;23.20;99.90;;;;;;5052936;28;20272;-65
2021/06/15 10:02:58;;;;;;;2.77;1.00;;;23.90;99.90;;;;;;5054174;28;20243;-65
2021/06/15 10:05:29;;;;;;;4.27;1.10;;;24.60;99.90;;;;;;5053446;28;20328;-65
2021/06/15 10:07:59;;;;;;;5.43;1.30;;;24.20;99.90;;;;;;5053631;28;20251;-65
2021/06/15 10:10:31;;;;;;;5.70;1.60;;;23.40;99.90;;;;;;5052514;28;20244;-65
2021/06/15 10:12:59;;;;;;;5.20;1.33;;;22.70;99.90;;;;;;5019316;28;20305;-66
2021/06/15 10:15:29;;;;;;;5.73;1.40;;;22.30;99.90;;;;;;5053499;28;20236;-65
2021/06/15 10:17:59;;;;;;;4.17;1.23;;;22.20;99.90;;;;;;5052901;28;20496;-65
2021/06/15 10:20:29;;;;;;;4.37;1.33;;;22.60;99.90;;;;;;5051554;28;20325;-65
2021/06/15 10:22:58;;;;;;;4.07;1.20;;;22.80;99.90;;;;;;5053387;28;20333;-65
2021/06/15 10:25:28;;;;;;;5.53;1.47;;;23.40;99.90;;;;;;5036006;28;20650;-65
2021/06/15 10:27:57;;;;;;;4.40;1.00;;;24.30;99.90;;;;;;5060430;28;20333;-66
2021/06/15 10:30:34;;;;;;;3.30;1.07;;;25.20;99.90;;;;;;5052417;28;20240;-66
2021/06/15 10:33:11;;;;;;;3.97;1.10;;;25.70;99.90;;;;;;5058595;28;20236;-66
2021/06/15 10:35:45;;;;;;;5.87;1.37;;;26.60;99.90;;;;;;5045787;28;20233;-66
2021/06/15 10:38:19;;;;;;;3.73;1.17;;;25.60;99.90;;;;;;5057578;28;20227;-66
2021/06/15 10:40:52;;;;;;;5.47;1.33;;;24.70;99.90;;;;;;5066429;28;20295;-66
2021/06/15 10:43:27;;;;;;;7.30;1.60;;;23.80;99.90;;;;;;5064284;28;20294;-66
2021/06/15 10:46:02;;;;;;;5.43;1.30;;;23.50;99.90;;;;;;5066473;28;20238;-66
2021/06/15 10:48:39;;;;;;;5.23;1.47;;;23.70;99.90;;;;;;5064009;28;20238;-66
2021/06/15 10:51:29;;;;;;;3.37;1.10;;;24.80;99.90;;;;;;5063626;28;20690;-65
2021/06/15 10:54:03;;;;;;;4.20;1.10;;;25.40;99.90;;;;;;5062347;28;20240;-66
2021/06/15 10:56:37;;;;;;;3.17;1.27;;;26.30;99.90;;;;;;5061964;28;20233;-66
2021/06/15 10:59:10;;;;;;;4.17;1.13;;;26.20;99.90;;;;;;5063259;28;20286;-66
2021/06/15 11:01:42;;;;;;;4.97;1.50;;;25.20;99.90;;;;;;5063202;28;20293;-66
2021/06/15 11:04:12;;;;;;;4.43;1.17;;;24.60;99.90;;;;;;5045696;28;20302;-66
2021/06/15 11:06:45;;;;;;;4.33;1.17;;;24.10;99.90;;;;;;5044702;28;20261;-66
2021/06/15 11:09:21;;;;;;;6.47;1.30;;;23.70;99.90;;;;;;5057153;28;20243;-66
2021/06/15 11:12:11;;;;;;;4.87;1.40;;;23.30;99.90;;;;;;5063731;28;20683;-66
2021/06/15 11:14:39;;;;;;;5.73;1.40;;;23.20;99.90;;;;;;5060012;28;20241;-66
2021/06/15 11:17:09;;;;;;;4.27;1.43;;;23.30;99.90;;;;;;5064023;28;20255;-66
2021/06/15 11:19:40;;;;;;;5.60;1.70;;;23.40;99.90;;;;;;5063000;28;20262;-66
2021/06/15 11:22:17;;;;;;;6.10;1.30;;;23.80;99.90;;;;;;5063745;28;20262;-66
2021/06/15 11:24:50;;;;;;;10.33;1.70;;;24.60;99.90;;;;;;5045520;28;20292;-66
2021/06/15 11:27:33;;;;;;;3.73;1.27;;;24.40;99.90;;;;;;5061472;28;20601;-66
2021/06/15 11:30:23;;;;;;;7.03;1.53;;;24.00;99.90;;;;;;5061119;28;20243;-66
2021/06/15 11:33:00;;;;;;;4.30;1.27;;;23.50;99.90;;;;;;5054757;28;20603;-66
2021/06/15 11:35:38;;;;;;;5.70;1.23;;;23.40;99.90;;;;;;5058471;28;20308;-66
2021/06/15 11:38:15;;;;;;;5.73;1.23;;;23.80;99.90;;;;;;5061177;28;20798;-66
2021/06/15 11:40:43;;;;;;;4.70;1.40;;;24.40;99.90;;;;;;5063415;28;20236;-66
2021/06/15 11:43:21;;;;;;;5.27;1.43;;;24.90;99.90;;;;;;5058795;28;20686;-66
2021/06/15 11:45:50;;;;;;;5.43;1.40;;;25.90;99.90;;;;;;5060827;28;20232;-66
2021/06/15 11:48:29;;;;;;;2.87;1.00;;;26.40;99.90;;;;;;5060424;28;20232;-66
2021/06/15 11:50:59;;;;;;;5.17;1.37;;;26.40;99.70;;;;;;5063465;28;20317;-65
2021/06/15 11:53:31;;;;;;;3.73;1.20;;;27.40;99.70;;;;;;5061129;28;20235;-65
2021/06/15 11:56:02;;;;;;;5.77;1.50;;;27.60;99.80;;;;;;5059076;28;20407;-65
2021/06/15 11:58:31;;;;;;;4.33;1.20;;;27.20;98.30;;;;;;5058789;28;20625;-65
2021/06/15 12:01:04;;;;;;;5.60;1.63;;;26.90;99.30;;;;;;5061672;28;20248;-65
2021/06/15 12:03:37;;;;;;;5.17;1.50;;;26.60;98.60;;;;;;5059733;28;20242;-65
2021/06/15 12:06:06;;;;;;;5.53;1.40;;;26.40;98.30;;;;;;5061736;28;20677;-66
2021/06/15 12:08:36;;;;;;;4.30;1.20;;;26.60;98.20;;;;;;5057312;28;20236;-65
2021/06/15 12:11:06;;;;;;;4.27;1.57;;;26.50;98.80;;;;;;5064176;28;20241;-65
2021/06/15 12:13:35;;;;;;;3.83;1.10;;;26.20;97.00;;;;;;5062769;28;20842;-65
2021/06/15 12:16:04;;;;;;;5.57;1.47;;;25.50;99.20;;;;;;5048732;28;20272;-65
2021/06/15 12:18:42;;;;;;;5.07;1.30;;;24.60;99.60;;;;;;5065394;28;20679;-65
2021/06/15 12:21:14;;;;;;;3.00;1.20;;;24.10;99.90;;;;;;5067303;28;20240;-65
2021/06/15 12:23:45;;;;;;;6.37;1.40;;;24.30;99.90;;;;;;5061593;28;20336;-66
2021/06/15 12:26:19;;;;;;;4.87;1.60;;;24.40;99.90;;;;;;5068053;28;20240;-65
2021/06/15 12:28:50;;;;;;;5.27;1.63;;;24.10;99.90;;;;;;5064219;28;20764;-65
2021/06/15 12:31:20;;;;;;;5.07;1.23;;;23.90;99.90;;;;;;5055473;28;20680;-65
2021/06/15 12:33:53;;;;;;;6.07;1.40;;;24.00;99.90;;;;;;5054557;28;20253;-65
2021/06/15 12:36:23;;;;;;;4.10;1.53;;;24.10;99.90;;;;;;5056305;28;20266;-65
2021/06/15 12:39:06;;;;;;;5.53;1.50;;;23.90;99.90;;;;;;5055152;28;20248;-65
2021/06/15 12:41:35;;;;;;;7.27;1.90;;;23.80;99.90;;;;;;5055297;28;20239;-65
2021/06/15 12:44:05;;;;;;;4.67;1.30;;;23.50;99.90;;;;;;5035116;28;20618;-65
2021/06/15 12:46:39;;;;;;;5.43;1.50;;;23.40;99.90;;;;;;5055747;28;20706;-65
2021/06/15 12:49:17;;;;;;;5.00;1.43;;;23.20;99.90;;;;;;5055369;28;20250;-65
2021/06/15 12:51:47;;;;;;;5.13;1.50;;;23.00;99.90;;;;;;5054359;28;20271;-64
2021/06/15 12:54:22;;;;;;;4.57;1.20;;;23.00;99.90;;;;;;5054345;28;20539;-65
2021/06/15 12:57:00;;;;;;;4.27;1.23;;;23.20;99.90;;;;;;5055625;28;20243;-65
2021/06/15 12:59:29;;;;;;;5.30;1.37;;;23.10;99.90;;;;;;5055297;28;20562;-65
2021/06/15 13:01:58;;;;;;;7.30;1.43;;;22.80;99.90;;;;;;5053016;28;20243;-65
2021/06/15 13:04:32;;;;;;;4.53;1.63;;;22.90;99.90;;;;;;5055220;28;20555;-65
2021/06/15 13:07:00;;;;;;;5.10;1.57;;;23.10;99.90;;;;;;5037181;28;20239;-65
2021/06/15 13:09:32;;;;;;;6.17;1.60;;;23.10;99.90;;;;;;5054832;28;20235;-65
2021/06/15 13:12:04;;;;;;;4.47;1.40;;;23.20;99.90;;;;;;5052932;28;20242;-65